Time;durP1;ratioP1;P1;durP2;ratioP2;P2;SDS_P1;SDS_P2;PMS_P1;PMS_P2;Temp;Humidity;BMP_temperature;BMP_pressure;BME280_temperature;BME280_humidity;BME280_pressure;Samples;Min_cycle;Max_cycle;Signal;HPM_P1;HPM_P2
2023/04/29 00:01:04;;;;;;;36.10;25.52;;;10.00;99.90;;;;;;5133071;27;20040;-74
2023/04/29 00:03:31;;;;;;;35.35;23.88;;;10.00;99.90;;;;;;5113410;28;20036;-75
2023/04/29 00:05:57;;;;;;;34.65;22.58;;;10.10;99.90;;;;;;5115649;28;20503;-74
2023/04/29 00:08:23;;;;;;;37.50;24.42;;;10.10;99.90;;;;;;5094752;28;20067;-74
2023/04/29 00:10:49;;;;;;;34.33;24.35;;;10.00;99.90;;;;;;5115265;28;20047;-74
2023/04/29 00:13:15;;;;;;;34.83;23.02;;;10.00;99.90;;;;;;5113118;28;20040;-74
2023/04/29 00:15:41;;;;;;;31.52;23.08;;;9.90;99.90;;;;;;5078158;28;20537;-74
2023/04/29 00:18:08;;;;;;;36.10;23.35;;;9.90;99.90;;;;;;5120476;27;20084;-74
2023/04/29 00:20:34;;;;;;;33.45;23.67;;;9.90;99.90;;;;;;5115411;28;20047;-74
2023/04/29 00:22:59;;;;;;;33.75;22.52;;;9.90;99.90;;;;;;5129770;27;20040;-75
2023/04/29 00:25:25;;;;;;;32.47;21.85;;;9.90;99.90;;;;;;5095293;28;20035;-74
2023/04/29 00:27:51;;;;;;;32.10;22.13;;;9.80;99.90;;;;;;5094574;28;20404;-74
2023/04/29 00:30:17;;;;;;;36.03;22.27;;;9.80;99.90;;;;;;5094521;28;20036;-74
2023/04/29 00:32:43;;;;;;;30.23;18.83;;;9.80;99.90;;;;;;5111219;27;20040;-74
2023/04/29 00:35:09;;;;;;;32.10;21.67;;;9.80;99.90;;;;;;5098881;28;20430;-74
2023/04/29 00:37:35;;;;;;;33.95;21.75;;;9.80;99.90;;;;;;5111421;28;20067;-74
2023/04/29 00:40:01;;;;;;;30.98;20.92;;;9.80;99.90;;;;;;5094398;28;20523;-74
2023/04/29 00:42:28;;;;;;;30.75;21.23;;;9.70;99.90;;;;;;5084900;28;20085;-74
2023/04/29 00:44:54;;;;;;;30.52;20.27;;;9.80;99.90;;;;;;5081023;28;20048;-74
2023/04/29 00:47:20;;;;;;;30.83;21.75;;;9.70;99.90;;;;;;5094335;28;20119;-75
2023/04/29 00:49:45;;;;;;;31.33;21.92;;;9.70;99.90;;;;;;5112976;28;20110;-75
2023/04/29 00:52:13;;;;;;;28.42;20.67;;;9.70;99.90;;;;;;5114902;28;20130;-75
2023/04/29 00:54:39;;;;;;;31.42;21.40;;;9.70;99.90;;;;;;5099598;28;20123;-75
2023/04/29 00:57:06;;;;;;;32.58;22.77;;;9.70;99.90;;;;;;5093879;28;20048;-75
2023/04/29 00:59:33;;;;;;;35.00;22.95;;;9.70;99.90;;;;;;5094151;28;20054;-75
2023/04/29 01:02:03;;;;;;;34.53;21.35;;;9.70;99.90;;;;;;5101466;28;20036;-75
2023/04/29 01:04:29;;;;;;;31.23;20.85;;;9.70;99.90;;;;;;5082962;28;20111;-74
2023/04/29 01:07:17;;;;;;;35.28;22.95;;;9.70;99.90;;;;;;5111180;28;20035;-74
2023/04/29 01:10:09;;;;;;;34.00;22.20;;;9.60;99.90;;;;;;5093881;28;20035;-75
2023/04/29 01:12:58;;;;;;;34.03;22.30;;;9.60;99.90;;;;;;5093644;28;20040;-75
2023/04/29 01:16:02;;;;;;;32.13;21.27;;;9.70;99.90;;;;;;5110499;28;20400;-74
2023/04/29 01:18:35;;;;;;;32.90;22.25;;;9.60;99.90;;;;;;5079496;28;20535;-75
2023/04/29 01:21:01;;;;;;;37.05;21.35;;;9.50;99.90;;;;;;5093511;28;20032;-75
2023/04/29 01:23:28;;;;;;;32.60;20.42;;;9.60;99.90;;;;;;5101807;28;20515;-75
2023/04/29 01:25:54;;;;;;;33.85;20.20;;;9.60;99.90;;;;;;5093372;28;20043;-75
2023/04/29 01:28:24;;;;;;;36.92;20.13;;;9.60;99.90;;;;;;5093108;28;20047;-75
2023/04/29 01:31:02;;;;;;;32.45;20.23;;;9.60;99.90;;;;;;5093530;28;20044;-75
2023/04/29 01:33:33;;;;;;;37.80;19.23;;;9.60;99.90;;;;;;5097355;28;20492;-76
2023/04/29 01:36:28;;;;;;;29.52;18.40;;;9.60;99.90;;;;;;5076367;28;20032;-76
2023/04/29 01:39:27;;;;;;;28.27;18.10;;;9.60;99.90;;;;;;5089467;28;20395;-76
2023/04/29 01:42:01;;;;;;;32.22;18.60;;;9.70;99.90;;;;;;5075732;28;20131;-75
2023/04/29 01:44:30;;;;;;;28.13;18.17;;;9.60;99.90;;;;;;5081164;28;20089;-75
2023/04/29 01:46:57;;;;;;;26.98;17.30;;;9.60;99.90;;;;;;5076161;28;20040;-75
2023/04/29 01:49:27;;;;;;;28.70;17.13;;;9.60;99.90;;;;;;5107028;28;20061;-74
2023/04/29 01:51:53;;;;;;;26.58;17.15;;;9.60;99.90;;;;;;5094869;28;20036;-74
2023/04/29 01:54:19;;;;;;;23.67;16.15;;;9.60;99.90;;;;;;5122665;27;20040;-75
2023/04/29 01:56:45;;;;;;;31.55;17.58;;;9.60;99.90;;;;;;5113026;28;20561;-75
2023/04/29 01:59:11;;;;;;;27.20;16.73;;;9.60;99.90;;;;;;5106794;28;20137;-74
2023/04/29 02:01:36;;;;;;;27.35;16.98;;;9.60;99.90;;;;;;5106234;28;20039;-75
2023/04/29 02:04:02;;;;;;;28.17;16.42;;;9.50;99.90;;;;;;5085457;28;20044;-74
2023/04/29 02:06:30;;;;;;;28.20;16.75;;;9.50;99.90;;;;;;5092078;28;20040;-75
2023/04/29 02:08:57;;;;;;;26.17;15.75;;;9.40;99.90;;;;;;5104173;28;20035;-75
2023/04/29 02:11:22;;;;;;;25.20;15.80;;;9.40;99.90;;;;;;5095756;28;20096;-75
2023/04/29 02:13:48;;;;;;;27.25;15.40;;;9.40;99.90;;;;;;5077452;28;20036;-75
2023/04/29 02:16:15;;;;;;;27.73;15.48;;;9.40;99.90;;;;;;5096190;28;20503;-75
2023/04/29 02:18:40;;;;;;;23.55;15.73;;;9.50;99.90;;;;;;5094854;28;20482;-76
2023/04/29 02:21:06;;;;;;;24.15;15.07;;;9.40;99.90;;;;;;5095112;28;20100;-76
2023/04/29 02:23:33;;;;;;;27.50;15.65;;;9.40;99.90;;;;;;5122563;27;20407;-76
2023/04/29 02:25:59;;;;;;;30.30;16.25;;;9.40;99.90;;;;;;5112660;28;20043;-76
2023/04/29 02:28:24;;;;;;;28.25;16.75;;;9.40;99.90;;;;;;5093638;28;20047;-75
2023/04/29 02:30:50;;;;;;;29.13;17.05;;;9.40;99.90;;;;;;5111676;28;20039;-75
2023/04/29 02:33:17;;;;;;;29.02;16.65;;;9.40;99.90;;;;;;5089806;28;20389;-75
2023/04/29 02:35:43;;;;;;;28.85;16.77;;;9.40;99.90;;;;;;5077132;28;20074;-75
2023/04/29 02:38:09;;;;;;;26.25;16.58;;;9.40;99.90;;;;;;5075687;28;20496;-75
2023/04/29 02:40:40;;;;;;;32.10;17.90;;;9.40;99.90;;;;;;5110266;28;20067;-75
2023/04/29 02:43:05;;;;;;;29.23;16.67;;;9.40;99.90;;;;;;5111648;28;20563;-75
2023/04/29 02:45:31;;;;;;;27.30;17.30;;;9.40;99.90;;;;;;5077519;28;20115;-75
2023/04/29 02:47:56;;;;;;;25.85;15.77;;;9.40;99.90;;;;;;5092273;28;20442;-75
2023/04/29 02:50:24;;;;;;;24.88;16.75;;;9.40;99.90;;;;;;5110910;28;20040;-75
2023/04/29 02:52:49;;;;;;;26.98;17.20;;;9.40;99.90;;;;;;5091299;28;20046;-75
2023/04/29 02:55:15;;;;;;;26.25;15.57;;;9.40;99.90;;;;;;5110561;28;20119;-74
2023/04/29 02:57:42;;;;;;;25.70;15.85;;;9.40;99.90;;;;;;5108990;28;20492;-74
2023/04/29 03:00:08;;;;;;;28.23;16.60;;;9.40;99.90;;;;;;5074589;28;20032;-74
2023/04/29 03:02:34;;;;;;;27.38;17.75;;;9.40;99.90;;;;;;5094400;28;20119;-75
2023/04/29 03:05:00;;;;;;;22.83;15.57;;;9.30;99.90;;;;;;5089448;28;20130;-75
2023/04/29 03:07:27;;;;;;;24.13;15.38;;;9.30;99.90;;;;;;5111866;28;20537;-74
2023/04/29 03:09:53;;;;;;;25.95;15.23;;;9.30;99.90;;;;;;5111188;28;20047;-74
2023/04/29 03:12:19;;;;;;;24.60;15.88;;;9.40;99.90;;;;;;5094294;28;20078;-75
2023/04/29 03:14:45;;;;;;;25.13;15.32;;;9.30;99.90;;;;;;5102616;28;20055;-74
2023/04/29 03:17:11;;;;;;;25.27;15.35;;;9.30;99.90;;;;;;5094059;28;20122;-74
2023/04/29 03:19:36;;;;;;;22.85;15.40;;;9.30;99.90;;;;;;5094367;28;20504;-74
2023/04/29 03:22:02;;;;;;;27.92;16.35;;;9.30;99.90;;;;;;5114498;28;20035;-74
2023/04/29 03:24:27;;;;;;;24.13;15.75;;;9.20;99.90;;;;;;5109497;28;20074;-74
2023/04/29 03:26:53;;;;;;;27.17;16.90;;;9.30;99.90;;;;;;5116219;28;20150;-74
2023/04/29 03:29:19;;;;;;;25.42;15.35;;;9.30;99.90;;;;;;5115299;28;20471;-74
2023/04/29 03:31:45;;;;;;;24.17;15.90;;;9.30;99.90;;;;;;5104745;28;20032;-74
2023/04/29 03:34:10;;;;;;;24.52;15.48;;;9.30;99.90;;;;;;5097216;28;20097;-74
2023/04/29 03:36:36;;;;;;;26.67;15.65;;;9.30;99.90;;;;;;5096083;28;20031;-74
2023/04/29 03:39:02;;;;;;;24.13;16.23;;;9.30;99.90;;;;;;5116120;28;20075;-74
2023/04/29 03:41:27;;;;;;;24.45;14.73;;;9.30;99.90;;;;;;5093280;28;20499;-74
2023/04/29 03:43:55;;;;;;;25.95;16.17;;;9.30;99.90;;;;;;5120527;27;20048;-74
2023/04/29 03:46:20;;;;;;;26.70;15.88;;;9.30;99.90;;;;;;5087987;28;20036;-75
2023/04/29 03:48:46;;;;;;;22.90;15.10;;;9.30;99.90;;;;;;5095325;28;20040;-74
2023/04/29 03:51:12;;;;;;;28.92;15.77;;;9.30;99.90;;;;;;5096738;28;20036;-74
2023/04/29 03:53:38;;;;;;;24.88;16.45;;;9.20;99.90;;;;;;5089939;28;20488;-75
2023/04/29 03:56:04;;;;;;;25.92;15.45;;;9.20;99.90;;;;;;5103559;28;20047;-74
2023/04/29 03:58:30;;;;;;;23.58;14.93;;;9.20;99.90;;;;;;5114135;28;20385;-74
2023/04/29 04:00:55;;;;;;;26.42;15.68;;;9.10;99.90;;;;;;5115701;28;20043;-74
2023/04/29 04:03:22;;;;;;;23.95;15.00;;;9.10;99.90;;;;;;5101927;27;20122;-74
2023/04/29 04:05:48;;;;;;;28.63;15.98;;;9.10;99.90;;;;;;5106696;28;20058;-74
2023/04/29 04:08:13;;;;;;;24.17;15.07;;;9.20;99.90;;;;;;5094701;28;20039;-74
2023/04/29 04:10:39;;;;;;;24.98;14.77;;;9.20;99.90;;;;;;5112089;28;20064;-74
2023/04/29 04:13:04;;;;;;;23.13;14.45;;;9.10;99.90;;;;;;5103696;28;20071;-74
2023/04/29 04:15:30;;;;;;;24.35;14.43;;;9.10;99.90;;;;;;5098636;28;20040;-74
2023/04/29 04:17:56;;;;;;;20.58;13.90;;;9.10;99.90;;;;;;5113711;27;20031;-74
2023/04/29 04:20:21;;;;;;;23.70;14.10;;;9.10;99.90;;;;;;5079819;27;20445;-74
2023/04/29 04:22:47;;;;;;;23.10;14.40;;;9.10;99.90;;;;;;5110258;28;20047;-74
2023/04/29 04:25:12;;;;;;;23.27;14.02;;;9.10;99.90;;;;;;5111932;28;20040;-74
2023/04/29 04:27:38;;;;;;;23.90;14.60;;;9.10;99.90;;;;;;5123675;27;20036;-74
2023/04/29 04:30:04;;;;;;;23.00;14.65;;;9.10;99.90;;;;;;5116059;27;20130;-74
2023/04/29 04:32:29;;;;;;;22.75;14.25;;;9.10;99.90;;;;;;5094312;28;20075;-74
2023/04/29 04:34:55;;;;;;;24.00;14.13;;;9.10;99.90;;;;;;5108616;28;20399;-74
2023/04/29 04:37:20;;;;;;;22.92;14.40;;;9.00;99.90;;;;;;5113685;28;20081;-74
2023/04/29 04:39:46;;;;;;;23.65;13.10;;;9.00;99.90;;;;;;5079793;28;20039;-74
2023/04/29 04:42:12;;;;;;;21.23;13.13;;;9.00;99.90;;;;;;5092155;28;20085;-74
2023/04/29 04:44:37;;;;;;;20.73;12.82;;;9.00;99.90;;;;;;5096727;28;20489;-74
2023/04/29 04:47:04;;;;;;;22.65;13.43;;;9.10;99.90;;;;;;5093857;28;20036;-74
2023/04/29 04:49:30;;;;;;;24.60;14.18;;;9.00;99.90;;;;;;5114573;28;20526;-74
2023/04/29 04:51:55;;;;;;;21.15;13.07;;;9.00;99.90;;;;;;5094251;28;20070;-74
2023/04/29 04:54:21;;;;;;;24.40;13.07;;;9.00;99.90;;;;;;5111831;28;20040;-74
2023/04/29 04:56:47;;;;;;;24.40;13.40;;;9.00;99.90;;;;;;5113487;28;20047;-74
2023/04/29 04:59:13;;;;;;;26.17;13.35;;;9.10;99.90;;;;;;5096441;28;20039;-74
2023/04/29 05:01:38;;;;;;;24.10;13.30;;;9.10;99.90;;;;;;5112841;28;20040;-74
2023/04/29 05:04:04;;;;;;;20.55;11.20;;;9.10;99.90;;;;;;5122946;27;20036;-74
2023/04/29 05:06:30;;;;;;;20.48;12.32;;;9.10;99.90;;;;;;5111300;28;20040;-74
2023/04/29 05:08:55;;;;;;;18.98;11.60;;;9.10;99.90;;;;;;5131310;27;20043;-74
2023/04/29 05:11:21;;;;;;;22.45;12.52;;;9.10;99.90;;;;;;5113227;28;20036;-74
2023/04/29 05:13:47;;;;;;;22.45;12.55;;;9.10;99.90;;;;;;5085927;28;20396;-74
2023/04/29 05:16:13;;;;;;;20.25;12.25;;;9.10;99.90;;;;;;5102641;28;20043;-74
2023/04/29 05:18:39;;;;;;;20.02;12.45;;;9.10;99.90;;;;;;5097229;28;20035;-74
2023/04/29 05:21:05;;;;;;;21.67;12.07;;;9.20;99.90;;;;;;5104268;28;20173;-74
2023/04/29 05:23:30;;;;;;;21.27;12.13;;;9.20;99.90;;;;;;5083298;28;20069;-74
2023/04/29 05:25:56;;;;;;;21.65;12.45;;;9.20;99.90;;;;;;5110360;28;20051;-74
2023/04/29 05:28:22;;;;;;;16.88;10.70;;;9.20;99.90;;;;;;5113754;28;20047;-74
2023/04/29 05:30:50;;;;;;;20.50;12.30;;;9.20;99.90;;;;;;5112958;28;20036;-74
2023/04/29 05:33:16;;;;;;;22.35;12.13;;;9.20;99.90;;;;;;5105006;28;20036;-74
2023/04/29 05:35:41;;;;;;;25.83;12.48;;;9.20;99.90;;;;;;5110178;28;20454;-74
2023/04/29 05:38:07;;;;;;;20.38;11.85;;;9.20;99.90;;;;;;5109583;28;20035;-74
2023/04/29 05:40:33;;;;;;;22.05;12.50;;;9.30;99.90;;;;;;5096620;28;20476;-74
2023/04/29 05:42:58;;;;;;;21.73;12.30;;;9.20;99.90;;;;;;5105208;28;20044;-74
2023/04/29 05:45:24;;;;;;;23.00;11.80;;;9.30;99.90;;;;;;5093014;28;20079;-74
2023/04/29 05:47:50;;;;;;;21.33;11.57;;;9.30;99.90;;;;;;5112443;27;20040;-74
2023/04/29 05:50:15;;;;;;;24.35;13.02;;;9.30;99.90;;;;;;5086280;28;20491;-74
2023/04/29 05:52:41;;;;;;;21.42;11.20;;;9.30;99.90;;;;;;5092277;27;20403;-74
2023/04/29 05:55:07;;;;;;;22.60;12.15;;;9.30;99.90;;;;;;5092624;28;20028;-74
2023/04/29 05:57:33;;;;;;;19.65;12.00;;;9.30;99.90;;;;;;5107883;28;20032;-74
2023/04/29 05:59:59;;;;;;;18.38;11.43;;;9.30;99.90;;;;;;5099427;28;20074;-74
2023/04/29 06:02:25;;;;;;;20.30;12.00;;;9.30;99.90;;;;;;5078268;28;20039;-74
2023/04/29 06:04:51;;;;;;;18.25;10.73;;;9.30;99.90;;;;;;5096657;28;20036;-75
2023/04/29 06:07:17;;;;;;;18.27;10.98;;;9.40;99.90;;;;;;5123198;27;20495;-74
2023/04/29 06:09:43;;;;;;;17.75;10.70;;;9.30;99.90;;;;;;5107407;28;20379;-74
2023/04/29 06:12:09;;;;;;;20.52;10.98;;;9.40;99.90;;;;;;5082702;28;20047;-74
2023/04/29 06:14:34;;;;;;;20.95;11.52;;;9.40;99.90;;;;;;5105554;28;20044;-74
2023/04/29 06:17:00;;;;;;;20.63;10.38;;;9.40;99.90;;;;;;5113185;28;20042;-74
2023/04/29 06:19:26;;;;;;;18.83;10.43;;;9.40;99.90;;;;;;5084074;28;20495;-74
2023/04/29 06:21:52;;;;;;;19.55;11.18;;;9.50;99.90;;;;;;5097404;28;20047;-74
2023/04/29 06:24:17;;;;;;;19.27;9.95;;;9.50;99.90;;;;;;5111377;28;20109;-74
2023/04/29 06:26:43;;;;;;;22.20;11.57;;;9.50;99.90;;;;;;5106840;28;20051;-74
2023/04/29 06:29:08;;;;;;;17.85;10.38;;;9.60;99.90;;;;;;5123903;27;20081;-74
2023/04/29 06:31:34;;;;;;;15.63;10.15;;;9.60;99.90;;;;;;5093597;28;20036;-73
2023/04/29 06:34:00;;;;;;;16.83;8.93;;;9.70;99.90;;;;;;5109727;27;20048;-74
2023/04/29 06:36:26;;;;;;;17.80;9.52;;;9.80;99.90;;;;;;5098026;28;20089;-74
2023/04/29 06:38:51;;;;;;;17.08;10.00;;;9.90;99.90;;;;;;5104983;28;20037;-74
2023/04/29 06:41:17;;;;;;;16.48;9.88;;;9.90;99.90;;;;;;5111756;28;20096;-74
2023/04/29 06:43:43;;;;;;;18.30;9.70;;;10.00;99.90;;;;;;5080280;28;20051;-74
2023/04/29 06:46:09;;;;;;;17.48;9.10;;;10.00;99.90;;;;;;5107469;28;20105;-74
2023/04/29 06:48:35;;;;;;;16.48;9.68;;;10.10;99.90;;;;;;5097523;28;20047;-74
2023/04/29 06:51:01;;;;;;;16.65;8.75;;;10.20;99.90;;;;;;5102982;28;20048;-74
2023/04/29 06:53:27;;;;;;;15.50;9.27;;;10.30;99.90;;;;;;5092064;28;20043;-74
2023/04/29 06:55:52;;;;;;;16.92;9.32;;;10.20;99.90;;;;;;5097409;28;20051;-74
2023/04/29 06:58:19;;;;;;;15.07;8.10;;;10.30;99.90;;;;;;5079277;28;20035;-74
2023/04/29 07:00:46;;;;;;;16.05;8.48;;;10.40;99.90;;;;;;5102439;28;20031;-74
2023/04/29 07:03:12;;;;;;;14.32;8.00;;;10.50;99.90;;;;;;5106313;28;20036;-74
2023/04/29 07:05:40;;;;;;;13.48;7.68;;;10.60;99.90;;;;;;5100103;28;20050;-74
2023/04/29 07:08:06;;;;;;;15.43;7.95;;;10.60;99.90;;;;;;5099192;28;20119;-74
2023/04/29 07:10:32;;;;;;;15.43;8.18;;;10.70;99.90;;;;;;5096514;28;20574;-74
2023/04/29 07:12:59;;;;;;;15.75;8.07;;;10.80;99.90;;;;;;5084411;28;20123;-74
2023/04/29 07:15:25;;;;;;;14.90;7.78;;;10.90;99.90;;;;;;5092463;28;20040;-74
2023/04/29 07:17:51;;;;;;;21.70;9.18;;;10.90;99.90;;;;;;5094858;28;20040;-73
2023/04/29 07:20:16;;;;;;;14.82;7.85;;;10.90;99.90;;;;;;5110033;28;20115;-73
2023/04/29 07:22:42;;;;;;;14.73;8.63;;;11.00;99.90;;;;;;5086590;28;20062;-73
2023/04/29 07:25:09;;;;;;;12.10;7.40;;;11.10;99.90;;;;;;5081931;28;20408;-74
2023/04/29 07:27:35;;;;;;;15.40;8.05;;;11.20;99.90;;;;;;5111093;28;20118;-73
2023/04/29 07:30:01;;;;;;;12.63;6.80;;;11.30;99.90;;;;;;5081071;28;20127;-74
2023/04/29 07:32:27;;;;;;;13.80;7.35;;;11.30;99.90;;;;;;5109220;28;20043;-73
2023/04/29 07:34:53;;;;;;;12.85;7.43;;;11.40;99.90;;;;;;5099480;28;20040;-73
2023/04/29 07:37:19;;;;;;;13.98;7.72;;;11.40;99.90;;;;;;5107727;28;20522;-73
2023/04/29 07:39:45;;;;;;;14.75;7.93;;;11.50;99.90;;;;;;5108134;28;20506;-73
2023/04/29 07:42:10;;;;;;;12.65;7.88;;;11.50;99.90;;;;;;5088486;28;20131;-73
2023/04/29 07:44:36;;;;;;;14.23;8.13;;;11.60;99.90;;;;;;5127329;28;20047;-73
2023/04/29 07:47:02;;;;;;;11.88;7.18;;;11.60;99.90;;;;;;5093286;28;20089;-73
2023/04/29 07:49:27;;;;;;;13.57;7.47;;;11.60;99.90;;;;;;5091205;28;20032;-73
2023/04/29 07:51:53;;;;;;;14.55;8.00;;;11.70;99.90;;;;;;5099832;28;20127;-73
2023/04/29 07:54:19;;;;;;;12.05;7.47;;;11.70;99.90;;;;;;5101744;28;20054;-73
2023/04/29 07:56:47;;;;;;;13.43;8.52;;;11.80;99.90;;;;;;5081189;28;20059;-73
2023/04/29 07:59:13;;;;;;;11.77;7.38;;;11.90;99.90;;;;;;5106251;28;20043;-73
2023/04/29 08:01:42;;;;;;;14.68;7.80;;;12.00;99.90;;;;;;5104012;28;20514;-73
2023/04/29 08:04:07;;;;;;;12.60;7.60;;;12.00;99.90;;;;;;5106866;28;20452;-73
2023/04/29 08:06:33;;;;;;;13.27;7.38;;;12.10;99.90;;;;;;5101594;28;20135;-73
2023/04/29 08:08:59;;;;;;;15.07;8.40;;;12.10;99.90;;;;;;5108543;28;20051;-73
2023/04/29 08:11:25;;;;;;;12.32;7.18;;;12.20;99.90;;;;;;5113208;28;20399;-73
2023/04/29 08:13:51;;;;;;;15.48;8.32;;;12.30;99.90;;;;;;5094540;28;20042;-74
2023/04/29 08:16:17;;;;;;;12.38;7.50;;;12.40;99.90;;;;;;5113771;28;20044;-74
2023/04/29 08:18:42;;;;;;;12.30;8.13;;;12.60;99.90;;;;;;5110452;28;20039;-73
2023/04/29 08:21:10;;;;;;;12.35;8.05;;;12.60;99.90;;;;;;5113795;28;20065;-75
2023/04/29 08:23:37;;;;;;;15.40;7.50;;;12.60;99.90;;;;;;5114014;28;20115;-75
2023/04/29 08:26:03;;;;;;;10.75;6.82;;;12.60;99.90;;;;;;5108688;28;20047;-75
2023/04/29 08:28:28;;;;;;;13.98;7.43;;;12.70;99.90;;;;;;5077368;28;20032;-75
2023/04/29 08:30:54;;;;;;;13.75;7.35;;;12.60;99.90;;;;;;5093825;28;20446;-75
2023/04/29 08:33:20;;;;;;;13.88;7.20;;;12.70;99.90;;;;;;5104441;28;20045;-75
2023/04/29 08:35:45;;;;;;;12.75;6.68;;;12.70;99.90;;;;;;5111426;28;20032;-75
2023/04/29 08:38:11;;;;;;;10.60;7.05;;;12.70;99.90;;;;;;5079361;28;20085;-75
2023/04/29 08:40:46;;;;;;;12.65;6.82;;;12.90;99.90;;;;;;5104023;28;20454;-75
2023/04/29 08:43:16;;;;;;;12.52;6.93;;;13.00;99.90;;;;;;5097975;28;21817;-75
2023/04/29 08:45:42;;;;;;;13.63;6.93;;;13.10;99.90;;;;;;5097689;28;20122;-75
2023/04/29 08:48:09;;;;;;;12.43;6.55;;;13.30;99.90;;;;;;5094106;28;20074;-75
2023/04/29 08:50:39;;;;;;;12.15;5.60;;;13.40;99.90;;;;;;5097860;28;20469;-75
2023/04/29 08:53:06;;;;;;;14.13;6.47;;;13.40;99.90;;;;;;5114470;28;20044;-75
2023/04/29 08:55:36;;;;;;;10.82;6.28;;;13.40;99.90;;;;;;5095675;28;20083;-75
2023/04/29 08:58:02;;;;;;;9.52;5.60;;;13.50;99.90;;;;;;5102178;28;20035;-75
2023/04/29 09:00:31;;;;;;;12.13;6.13;;;13.60;99.90;;;;;;5101961;28;20495;-75
2023/04/29 09:02:57;;;;;;;13.10;6.55;;;13.60;99.90;;;;;;5096384;28;20047;-75
2023/04/29 09:05:24;;;;;;;13.10;6.13;;;13.60;99.90;;;;;;5105169;27;20553;-75
2023/04/29 09:07:50;;;;;;;11.50;6.30;;;13.50;99.90;;;;;;5088434;28;20086;-75
2023/04/29 09:10:17;;;;;;;12.48;6.65;;;13.50;99.90;;;;;;5102973;28;20043;-75
2023/04/29 09:12:42;;;;;;;12.98;6.70;;;13.30;99.90;;;;;;5101034;28;20047;-75
2023/04/29 09:15:08;;;;;;;16.42;6.40;;;13.40;99.90;;;;;;5095208;28;20040;-75
2023/04/29 09:17:45;;;;;;;13.10;6.18;;;13.30;99.90;;;;;;5092903;28;20111;-75
2023/04/29 09:20:29;;;;;;;13.90;7.32;;;13.40;99.90;;;;;;5111483;28;20495;-75
2023/04/29 09:23:00;;;;;;;11.30;6.93;;;13.20;99.90;;;;;;5108000;28;20039;-75
2023/04/29 09:25:26;;;;;;;12.50;6.10;;;13.40;99.90;;;;;;5096079;28;20036;-75
2023/04/29 09:27:53;;;;;;;10.93;6.45;;;13.40;99.90;;;;;;5102351;28;20407;-76
2023/04/29 09:30:20;;;;;;;9.82;5.53;;;13.50;99.90;;;;;;5113850;28;20046;-74
2023/04/29 09:32:46;;;;;;;11.07;6.25;;;13.40;99.90;;;;;;5106591;27;20508;-75
2023/04/29 09:35:26;;;;;;;13.52;6.90;;;13.20;99.90;;;;;;5114821;27;20365;-74
2023/04/29 09:37:53;;;;;;;10.95;6.40;;;13.20;99.90;;;;;;5098958;27;20459;-73
2023/04/29 09:40:32;;;;;;;11.85;6.47;;;13.10;99.90;;;;;;5095891;28;20111;-73
2023/04/29 09:42:58;;;;;;;12.80;6.85;;;13.20;99.90;;;;;;5096590;28;20035;-74
2023/04/29 09:45:37;;;;;;;10.38;6.28;;;13.10;99.90;;;;;;5081862;28;20051;-74
2023/04/29 09:48:05;;;;;;;13.88;6.65;;;13.10;99.90;;;;;;5076189;28;20048;-74
2023/04/29 09:50:31;;;;;;;11.98;6.32;;;13.10;99.90;;;;;;5093050;28;20085;-76
2023/04/29 09:52:58;;;;;;;11.63;6.63;;;13.10;99.90;;;;;;5095876;28;20106;-77
2023/04/29 09:55:23;;;;;;;13.75;7.45;;;13.30;99.90;;;;;;5085048;28;20082;-77
2023/04/29 09:57:49;;;;;;;11.07;6.03;;;13.60;99.90;;;;;;5100594;28;20067;-78
2023/04/29 10:00:14;;;;;;;12.25;6.00;;;13.70;99.90;;;;;;5113125;28;20399;-78
2023/04/29 10:02:42;;;;;;;11.43;5.75;;;13.90;99.90;;;;;;5086053;28;20119;-79
2023/04/29 10:05:09;;;;;;;11.80;6.50;;;14.10;99.90;;;;;;5081060;28;20043;-79
2023/04/29 10:07:38;;;;;;;11.23;6.85;;;14.20;99.90;;;;;;5105676;28;20047;-80
2023/04/29 10:10:06;;;;;;;10.32;5.95;;;14.30;99.90;;;;;;5113002;28;20039;-79
2023/04/29 10:12:34;;;;;;;12.82;6.10;;;14.30;99.90;;;;;;5095176;28;20176;-81
2023/04/29 10:15:04;;;;;;;9.95;5.97;;;14.40;99.90;;;;;;5094383;28;20066;-81
2023/04/29 10:17:46;;;;;;;10.68;5.30;;;14.50;99.90;;;;;;5113172;28;20061;-79
2023/04/29 10:20:22;;;;;;;10.43;5.32;;;14.50;99.90;;;;;;5096165;28;20462;-74
2023/04/29 10:22:49;;;;;;;10.80;5.60;;;14.50;99.90;;;;;;5099006;28;20036;-74
2023/04/29 10:25:17;;;;;;;13.82;5.20;;;14.50;99.90;;;;;;5075304;28;20047;-74
2023/04/29 10:27:43;;;;;;;12.25;5.25;;;14.50;99.90;;;;;;5091699;28;20044;-74
2023/04/29 10:30:14;;;;;;;10.75;5.50;;;14.60;99.90;;;;;;5092290;28;20484;-74
2023/04/29 10:32:40;;;;;;;9.90;4.80;;;14.70;99.90;;;;;;5103310;28;20035;-74
2023/04/29 10:35:11;;;;;;;10.27;5.03;;;14.70;99.90;;;;;;5095485;28;20046;-74
2023/04/29 10:37:37;;;;;;;12.55;5.32;;;14.60;99.90;;;;;;5095649;28;20057;-74
2023/04/29 10:40:35;;;;;;;12.23;5.10;;;14.70;99.90;;;;;;5093756;28;20044;-74
2023/04/29 10:43:01;;;;;;;10.25;5.10;;;14.70;99.90;;;;;;5076509;28;20044;-74
2023/04/29 10:45:32;;;;;;;9.82;4.65;;;14.80;99.90;;;;;;5092036;28;20040;-74
2023/04/29 10:48:05;;;;;;;9.23;4.83;;;14.80;99.90;;;;;;5092194;28;20557;-74
2023/04/29 10:50:45;;;;;;;9.88;5.53;;;14.90;99.90;;;;;;5092065;28;20331;-74
2023/04/29 10:53:13;;;;;;;10.07;5.35;;;14.80;99.90;;;;;;5093565;28;20044;-74
2023/04/29 10:55:39;;;;;;;8.45;4.60;;;14.80;99.90;;;;;;5075150;28;20117;-74
2023/04/29 10:58:39;;;;;;;11.25;5.13;;;14.90;99.90;;;;;;5092297;28;20051;-74
2023/04/29 11:01:06;;;;;;;11.18;5.72;;;14.80;99.90;;;;;;5092226;28;20682;-74
2023/04/29 11:03:49;;;;;;;9.98;4.90;;;14.90;99.90;;;;;;5100847;28;20429;-74
2023/04/29 11:06:15;;;;;;;9.00;4.38;;;15.00;99.90;;;;;;5104007;28;20036;-74
2023/04/29 11:08:42;;;;;;;8.63;4.75;;;15.00;99.90;;;;;;5099036;28;20036;-74
2023/04/29 11:11:08;;;;;;;10.18;4.47;;;15.10;99.90;;;;;;5085821;28;20448;-74
2023/04/29 11:13:38;;;;;;;9.63;4.38;;;15.10;99.90;;;;;;5077862;28;20032;-74
2023/04/29 11:16:09;;;;;;;7.60;3.97;;;14.90;99.90;;;;;;5100384;28;20036;-74
2023/04/29 11:19:06;;;;;;;9.57;4.65;;;15.00;99.90;;;;;;5128250;28;20035;-73
2023/04/29 11:21:36;;;;;;;10.63;4.13;;;14.80;99.90;;;;;;5090229;28;20094;-73
2023/04/29 11:24:05;;;;;;;9.88;3.97;;;14.80;99.90;;;;;;5110499;28;20039;-73
2023/04/29 11:26:31;;;;;;;10.95;5.00;;;15.00;99.90;;;;;;5111802;28;20388;-73
2023/04/29 11:28:59;;;;;;;8.80;4.90;;;14.90;99.90;;;;;;5095164;28;20119;-73
2023/04/29 11:31:29;;;;;;;9.57;4.50;;;14.70;99.90;;;;;;5094162;28;20036;-73
2023/04/29 11:33:54;;;;;;;9.32;4.65;;;14.70;99.90;;;;;;5107342;28;20118;-73
2023/04/29 11:36:20;;;;;;;9.30;5.43;;;14.80;99.90;;;;;;5095228;28;20181;-73
2023/04/29 11:38:46;;;;;;;8.38;4.35;;;14.70;99.90;;;;;;5111668;28;20035;-73
2023/04/29 11:41:11;;;;;;;10.35;4.97;;;14.50;99.90;;;;;;5097668;28;20494;-73
2023/04/29 11:43:38;;;;;;;10.82;4.85;;;14.50;99.90;;;;;;5115724;28;20490;-73
2023/04/29 11:46:14;;;;;;;11.68;3.92;;;14.50;99.90;;;;;;5116034;28;20044;-73
2023/04/29 11:48:47;;;;;;;8.70;3.95;;;14.40;99.90;;;;;;5091009;28;20036;-73
2023/04/29 11:51:13;;;;;;;10.93;4.13;;;14.60;99.90;;;;;;5078173;28;20043;-73
2023/04/29 11:53:39;;;;;;;7.07;3.22;;;14.60;99.90;;;;;;5094483;28;20032;-73
2023/04/29 11:56:05;;;;;;;7.13;3.30;;;14.70;99.90;;;;;;5094616;28;20154;-73
2023/04/29 11:58:31;;;;;;;7.30;3.03;;;14.80;99.90;;;;;;5078083;28;20036;-73
2023/04/29 12:00:59;;;;;;;8.45;3.30;;;14.90;99.90;;;;;;5095310;28;20028;-73
2023/04/29 12:03:25;;;;;;;6.05;2.80;;;14.90;99.90;;;;;;5094970;28;20434;-73
2023/04/29 12:05:51;;;;;;;6.15;3.00;;;14.80;96.80;;;;;;5095003;28;20044;-73
2023/04/29 12:08:21;;;;;;;6.53;2.53;;;14.80;99.90;;;;;;5094915;28;20393;-73
2023/04/29 12:10:47;;;;;;;7.72;2.50;;;14.90;98.90;;;;;;5087006;28;20044;-73
2023/04/29 12:13:13;;;;;;;5.82;2.65;;;14.90;99.90;;;;;;5102970;28;20036;-73
2023/04/29 12:15:39;;;;;;;6.90;2.20;;;14.90;98.00;;;;;;5113353;28;20039;-73
2023/04/29 12:18:05;;;;;;;5.10;2.42;;;15.00;97.10;;;;;;5109547;28;20388;-73
2023/04/29 12:20:31;;;;;;;6.22;2.20;;;15.00;92.40;;;;;;5077701;28;20046;-73
2023/04/29 12:23:22;;;;;;;4.43;2.15;;;14.90;97.10;;;;;;5077884;28;20040;-73
2023/04/29 12:25:50;;;;;;;6.32;2.13;;;14.90;96.20;;;;;;5108801;28;20044;-73
2023/04/29 12:28:16;;;;;;;5.22;2.25;;;14.90;95.50;;;;;;5106213;28;20559;-73
2023/04/29 12:30:46;;;;;;;5.80;2.00;;;15.00;99.90;;;;;;5076286;28;20123;-73
2023/04/29 12:33:20;;;;;;;6.50;2.40;;;15.00;99.80;;;;;;5077678;28;20047;-73
2023/04/29 12:35:49;;;;;;;6.32;2.47;;;15.00;94.80;;;;;;5108349;28;20050;-73
2023/04/29 12:38:19;;;;;;;6.85;2.50;;;15.00;97.30;;;;;;5094353;28;20042;-73
2023/04/29 12:40:45;;;;;;;6.88;2.53;;;15.00;98.90;;;;;;5112972;28;20043;-73